Terminal Aerodrome Forecast
Issued by NWS Albany, NY

Home | Current Version | Previous Version | Text Only | Print | Product List | Glossary On
Versions: 1 2 3 4 5 6 7 8 9 10 11 12 13 14 15 16 17 18 19 20 21 22
000
FTUS41 KALY 301744 CCA
TAFALB
TAF COR
KALB 301744Z 3018/3118 17012G22KT P6SM VCTS SCT050CB BKN110
     FM302100 19010G20KT P6SM VCSH SCT030 OVC050
      TEMPO 3021/3024 6SM -SHRA BR SCT020 BKN030
     FM310000 19008KT 6SM -SHRA BR OVC025
     FM310800 VRB06KT 4SM -SHRA BR OVC011
     FM311200 34006KT 4SM -SHRA BR OVC009=

USA.gov is the U.S. government's official web portal to all federal, state and local government web resources and services.